PWSweather.com
Personal Weather Stations
Station Observations
VPOKROGLO
Kal Nad Kanalom, PrimorskaSI

Kal Nad KanalomPrimorskaSI

Lat: 46.072, Lon: 13.734

Elevation: 2526

Station Type: WS-2355

http://www.okroglovreme.com

High Low Average
Temperature 68.4°F20.2°C 45.7°F7.6°C 55.0°F12.8°C
Dew Point 58.5°F14.7°C 42.3°F5.7°C 51.8°F11.0°C
Winds 13.2 mph 21.2 kmh Calm Calm 2.0 mph SE3.2 kmh SE
Wind Gusts 17.2 mph27.7 kmh -- 4.0 mph6.4 kmh
Humidity 95% 69% 89%
Pressure 29.78 in1008.5 mb 29.65 in1004.1 mb -
Precipitation 1.43 in36.3 mm - -
Hour Temp Dew Point Humidity Winds Wind Gusts Pressure Precip Precip Rate Daily Precip Total
06:00 AM 54.1°F12.3°C 52.5°F11.4°C 94% Calm Calm -- 29.71 in1006.1 mb 0.00 in0.0 mm 0.00 in/hr0.0 mm/hr 0.08 in2.0 mm
06:10 AM 54.3°F12.4°C 52.6°F11.4°C 94% 2.5 mph WSW4.0 kmh WSW 2.5 mph4.0 kmh 29.70 in1005.8 mb 0.00 in0.0 mm 0.00 in/hr0.0 mm/hr 0.08 in2.0 mm
06:11 AM 59.7°F15.4°C 58.0°F14.4°C 94% Calm Calm -- 29.77 in1008.1 mb 0.00 in0.0 mm 0.00 in/hr0.0 mm/hr 0.67 in17.0 mm
06:12 AM 55.9°F13.3°C 54.2°F12.3°C 94% 2.7 mph WSW4.3 kmh WSW 2.7 mph4.3 kmh 29.71 in1006.1 mb 0.06 in1.5 mm 3.60 in/hr91.4 mm/hr 0.08 in2.0 mm
06:15 AM 54.7°F12.6°C 53.0°F11.7°C 94% 0.8 mph WSW1.3 kmh WSW 3.6 mph5.8 kmh 29.70 in1005.8 mb 0.00 in0.0 mm 0.00 in/hr0.0 mm/hr 0.08 in2.0 mm
06:30 AM 55.6°F13.1°C 53.9°F12.2°C 94% 1.4 mph W2.3 kmh W 4.0 mph6.4 kmh 29.70 in1005.8 mb 0.00 in0.0 mm 0.00 in/hr0.0 mm/hr 0.08 in2.0 mm
06:45 AM 55.8°F13.2°C 53.8°F12.1°C 93% 1.6 mph WSW2.6 kmh WSW 4.5 mph7.2 kmh 29.70 in1005.8 mb 0.00 in0.0 mm 0.00 in/hr0.0 mm/hr 0.08 in2.0 mm
07:00 AM 56.1°F13.4°C 54.1°F12.3°C 93% 1.3 mph SW2.1 kmh SW 4.9 mph7.9 kmh 29.71 in1006.1 mb 0.00 in0.0 mm 0.00 in/hr0.0 mm/hr 0.08 in2.0 mm
07:15 AM 56.7°F13.7°C 54.4°F12.4°C 92% 1.7 mph WSW2.7 kmh WSW 5.4 mph8.7 kmh 29.71 in1006.1 mb 0.00 in0.0 mm 0.00 in/hr0.0 mm/hr 0.08 in2.0 mm
07:30 AM 57.0°F13.9°C 54.4°F12.4°C 91% 1.6 mph SW2.6 kmh SW 4.7 mph7.6 kmh 29.72 in1006.4 mb 0.00 in0.0 mm 0.00 in/hr0.0 mm/hr 0.08 in2.0 mm
07:45 AM 56.8°F13.8°C 53.9°F12.2°C 90% 1.4 mph NW2.3 kmh NW 4.9 mph7.9 kmh 29.72 in1006.4 mb 0.00 in0.0 mm 0.00 in/hr0.0 mm/hr 0.08 in2.0 mm
08:00 AM 57.0°F13.9°C 53.8°F12.1°C 89% 1.4 mph WSW2.3 kmh WSW 5.1 mph8.2 kmh 29.72 in1006.4 mb 0.02 in0.5 mm 0.03 in/hr0.8 mm/hr 0.10 in2.5 mm
08:15 AM 56.8°F13.8°C 53.6°F12.0°C 89% 0.9 mph SW1.4 kmh SW 3.1 mph5.0 kmh 29.73 in1006.8 mb 0.02 in0.5 mm 0.00 in/hr0.0 mm/hr 0.10 in2.5 mm
08:30 AM 56.1°F13.4°C 52.9°F11.6°C 89% 2.0 mph SW3.2 kmh SW 5.4 mph8.7 kmh 29.72 in1006.4 mb 0.04 in1.0 mm 0.08 in/hr2.0 mm/hr 0.12 in3.0 mm
08:45 AM 55.9°F13.3°C 53.0°F11.7°C 90% 2.2 mph SW3.5 kmh SW 4.5 mph7.2 kmh 29.70 in1005.8 mb 0.04 in1.0 mm 0.00 in/hr0.0 mm/hr 0.12 in3.0 mm
09:00 AM 56.1°F13.4°C 53.2°F11.8°C 90% 2.5 mph SW4.0 kmh SW 7.2 mph11.6 kmh 29.71 in1006.1 mb 0.02 in0.5 mm 0.00 in/hr0.0 mm/hr 0.12 in3.0 mm
09:15 AM 56.8°F13.8°C 54.2°F12.3°C 91% 1.0 mph W1.6 kmh W 3.8 mph6.1 kmh 29.72 in1006.4 mb 0.02 in0.5 mm 0.00 in/hr0.0 mm/hr 0.12 in3.0 mm
09:30 AM 57.4°F14.1°C 54.8°F12.7°C 91% 1.1 mph SW1.8 kmh SW 3.8 mph6.1 kmh 29.72 in1006.4 mb 0.00 in0.0 mm 0.00 in/hr0.0 mm/hr 0.12 in3.0 mm
09:45 AM 57.7°F14.3°C 54.5°F12.5°C 89% 1.9 mph W3.1 kmh W 5.6 mph9.0 kmh 29.73 in1006.8 mb 0.00 in0.0 mm 0.00 in/hr0.0 mm/hr 0.12 in3.0 mm
10:00 AM 58.3°F14.6°C 54.7°F12.6°C 88% 2.4 mph SSW3.9 kmh SSW 6.9 mph11.1 kmh 29.72 in1006.4 mb 0.00 in0.0 mm 0.00 in/hr0.0 mm/hr 0.12 in3.0 mm
10:15 AM 59.2°F15.1°C 55.0°F12.8°C 86% 2.0 mph WSW3.2 kmh WSW 4.9 mph7.9 kmh 29.72 in1006.4 mb 0.00 in0.0 mm 0.00 in/hr0.0 mm/hr 0.12 in3.0 mm
10:30 AM 59.7°F15.4°C 55.2°F12.9°C 85% 1.8 mph S2.9 kmh S 7.2 mph11.6 kmh 29.72 in1006.4 mb 0.00 in0.0 mm 0.00 in/hr0.0 mm/hr 0.12 in3.0 mm
10:45 AM 60.1°F15.6°C 55.2°F12.9°C 84% 2.4 mph SW3.9 kmh SW 9.8 mph15.8 kmh 29.71 in1006.1 mb 0.00 in0.0 mm 0.00 in/hr0.0 mm/hr 0.12 in3.0 mm
11:00 AM 61.0°F16.1°C 55.8°F13.2°C 83% 1.8 mph SW2.9 kmh SW 6.5 mph10.5 kmh 29.71 in1006.1 mb 0.00 in0.0 mm 0.00 in/hr0.0 mm/hr 0.12 in3.0 mm
11:15 AM 61.5°F16.4°C 55.6°F13.1°C 81% 0.9 mph S1.4 kmh S 5.8 mph9.3 kmh 29.71 in1006.1 mb 0.00 in0.0 mm 0.00 in/hr0.0 mm/hr 0.12 in3.0 mm
11:30 AM 62.1°F16.7°C 55.8°F13.2°C 80% 1.4 mph SW2.3 kmh SW 5.8 mph9.3 kmh 29.70 in1005.8 mb 0.00 in0.0 mm 0.00 in/hr0.0 mm/hr 0.12 in3.0 mm
11:45 AM 62.4°F16.9°C 55.8°F13.2°C 79% 1.5 mph SW2.4 kmh SW 8.9 mph14.3 kmh 29.70 in1005.8 mb 0.00 in0.0 mm 0.00 in/hr0.0 mm/hr 0.12 in3.0 mm
12:00 PM 63.0°F17.2°C 56.0°F13.3°C 78% 1.9 mph S3.1 kmh S 6.5 mph10.5 kmh 29.70 in1005.8 mb 0.00 in0.0 mm 0.00 in/hr0.0 mm/hr 0.12 in3.0 mm
12:15 PM 63.5°F17.5°C 56.5°F13.6°C 78% 1.2 mph SE1.9 kmh SE 7.6 mph12.2 kmh 29.70 in1005.8 mb 0.00 in0.0 mm 0.00 in/hr0.0 mm/hr 0.12 in3.0 mm
12:30 PM 64.2°F17.9°C 56.5°F13.6°C 76% 1.4 mph SSE2.3 kmh SSE 8.9 mph14.3 kmh 29.70 in1005.8 mb 0.00 in0.0 mm 0.00 in/hr0.0 mm/hr 0.12 in3.0 mm
12:45 PM 64.8°F18.2°C 57.0°F13.9°C 76% 1.8 mph S2.9 kmh S 5.1 mph8.2 kmh 29.69 in1005.4 mb 0.00 in0.0 mm 0.00 in/hr0.0 mm/hr 0.12 in3.0 mm
01:00 PM 65.1°F18.4°C 57.0°F13.9°C 75% 1.7 mph SSE2.7 kmh SSE 5.4 mph8.7 kmh 29.69 in1005.4 mb 0.00 in0.0 mm 0.00 in/hr0.0 mm/hr 0.12 in3.0 mm
01:15 PM 65.8°F18.8°C 57.3°F14.1°C 74% 1.6 mph S2.6 kmh S 6.7 mph10.8 kmh 29.68 in1005.1 mb 0.00 in0.0 mm 0.00 in/hr0.0 mm/hr 0.12 in3.0 mm
01:30 PM 66.7°F19.3°C 57.8°F14.3°C 73% 1.5 mph S2.4 kmh S 6.3 mph10.1 kmh 29.68 in1005.1 mb 0.00 in0.0 mm 0.00 in/hr0.0 mm/hr 0.12 in3.0 mm
01:45 PM 67.8°F19.9°C 58.5°F14.7°C 72% 2.3 mph S3.7 kmh S 7.8 mph12.6 kmh 29.68 in1005.1 mb 0.00 in0.0 mm 0.00 in/hr0.0 mm/hr 0.12 in3.0 mm
02:00 PM 68.4°F20.2°C 57.8°F14.3°C 69% 1.8 mph S2.9 kmh S 5.8 mph9.3 kmh 29.67 in1004.7 mb 0.00 in0.0 mm 0.00 in/hr0.0 mm/hr 0.12 in3.0 mm
02:15 PM 66.4°F19.1°C 55.9°F13.3°C 69% 1.7 mph S2.7 kmh S 7.2 mph11.6 kmh 29.67 in1004.7 mb 0.00 in0.0 mm 0.00 in/hr0.0 mm/hr 0.12 in3.0 mm
06:50 PM 48.4°F9.1°C 45.3°F7.4°C 89% 5.1 mph SSW8.2 kmh SSW 5.1 mph8.2 kmh 29.68 in1005.1 mb 0.06 in1.5 mm 0.10 in/hr2.5 mm/hr 1.39 in35.3 mm
06:55 PM 64.2°F17.9°C 55.0°F12.8°C 72% 1.7 mph NNE2.7 kmh NNE 2.5 mph4.0 kmh 29.67 in1004.7 mb 0.00 in0.0 mm 0.00 in/hr0.0 mm/hr 0.12 in3.0 mm
07:00 PM 48.0°F8.9°C 44.9°F7.2°C 89% 3.4 mph SW5.5 kmh SW 7.4 mph11.9 kmh 29.68 in1005.1 mb 0.04 in1.0 mm 0.04 in/hr1.0 mm/hr 1.39 in35.3 mm
08:20 PM 47.1°F8.4°C 44.0°F6.7°C 89% 5.4 mph S8.7 kmh S 5.4 mph8.7 kmh 29.69 in1005.4 mb 0.02 in0.5 mm 0.06 in/hr1.5 mm/hr 1.43 in36.3 mm
08:25 PM 47.8°F8.8°C 44.8°F7.1°C 89% 5.6 mph S9.0 kmh S 8.1 mph13.0 kmh 29.69 in1005.4 mb 0.04 in1.0 mm 0.24 in/hr6.1 mm/hr 1.39 in35.3 mm
08:30 PM 46.9°F8.3°C 44.2°F6.8°C 90% 3.5 mph SW5.6 kmh SW 10.5 mph16.9 kmh 29.71 in1006.1 mb 0.02 in0.5 mm 0.00 in/hr0.0 mm/hr 1.43 in36.3 mm
08:45 PM 46.9°F8.3°C 44.2°F6.8°C 90% 4.5 mph S7.2 kmh S 14.8 mph23.8 kmh 29.70 in1005.8 mb 0.02 in0.5 mm 0.00 in/hr0.0 mm/hr 1.43 in36.3 mm
09:00 PM 46.8°F8.2°C 43.7°F6.5°C 89% 4.6 mph SW7.4 kmh SW 13.0 mph20.9 kmh 29.72 in1006.4 mb 0.00 in0.0 mm 0.00 in/hr0.0 mm/hr 1.43 in36.3 mm
09:15 PM 46.8°F8.2°C 43.7°F6.5°C 89% 4.1 mph SW6.6 kmh SW 13.9 mph22.4 kmh 29.72 in1006.4 mb 0.00 in0.0 mm 0.00 in/hr0.0 mm/hr 1.43 in36.3 mm
09:30 PM 46.8°F8.2°C 43.7°F6.5°C 89% 3.8 mph SW6.1 kmh SW 12.1 mph19.5 kmh 29.73 in1006.8 mb 0.00 in0.0 mm 0.00 in/hr0.0 mm/hr 1.43 in36.3 mm
09:45 PM 46.6°F8.1°C 43.5°F6.4°C 89% 3.6 mph S5.8 kmh S 13.9 mph22.4 kmh 29.73 in1006.8 mb 0.00 in0.0 mm 0.00 in/hr0.0 mm/hr 1.43 in36.3 mm
10:00 PM 46.6°F8.1°C 43.2°F6.2°C 88% 4.4 mph SSE7.1 kmh SSE 13.6 mph21.9 kmh 29.73 in1006.8 mb 0.00 in0.0 mm 0.00 in/hr0.0 mm/hr 1.43 in36.3 mm
10:15 PM 46.6°F8.1°C 43.2°F6.2°C 88% 3.7 mph SSW6.0 kmh SSW 10.3 mph16.6 kmh 29.73 in1006.8 mb 0.00 in0.0 mm 0.00 in/hr0.0 mm/hr 1.43 in36.3 mm
10:30 PM 46.6°F8.1°C 43.2°F6.2°C 88% 3.0 mph WSW4.8 kmh WSW 10.5 mph16.9 kmh 29.74 in1007.1 mb 0.00 in0.0 mm 0.00 in/hr0.0 mm/hr 1.43 in36.3 mm
10:45 PM 46.2°F7.9°C 42.9°F6.1°C 88% 3.5 mph SSW5.6 kmh SSW 11.0 mph17.7 kmh 29.74 in1007.1 mb 0.00 in0.0 mm 0.00 in/hr0.0 mm/hr 1.43 in36.3 mm
11:00 PM 46.2°F7.9°C 42.9°F6.1°C 88% 3.2 mph SW5.1 kmh SW 8.1 mph13.0 kmh 29.74 in1007.1 mb 0.00 in0.0 mm 0.00 in/hr0.0 mm/hr 0.24 in6.1 mm
11:15 PM 46.2°F7.9°C 42.9°F6.1°C 88% 3.5 mph SSW5.6 kmh SSW 17.2 mph27.7 kmh 29.74 in1007.1 mb 0.00 in0.0 mm 0.00 in/hr0.0 mm/hr 0.24 in6.1 mm
11:30 PM 46.0°F7.8°C 42.7°F5.9°C 88% 3.6 mph S5.8 kmh S 11.2 mph18.0 kmh 29.73 in1006.8 mb 0.00 in0.0 mm 0.00 in/hr0.0 mm/hr 0.24 in6.1 mm
11:45 PM 45.7°F7.6°C 42.3°F5.7°C 88% 2.8 mph SW4.5 kmh SW 9.2 mph14.8 kmh 29.74 in1007.1 mb 0.00 in0.0 mm 0.00 in/hr0.0 mm/hr 0.24 in6.1 mm